sensor_id;sensor_type;location;lat;lon;timestamp;P1;durP1;ratioP1;P2;durP2;ratioP2
66893;SDS011;53801;55.786;49.142;2022-08-03T00:01:32;21.75;;;12.35;;
66893;SDS011;53801;55.786;49.142;2022-08-03T00:03:57;27.47;;;14.00;;
66893;SDS011;53801;55.786;49.142;2022-08-03T00:06:23;23.73;;;13.37;;
66893;SDS011;53801;55.786;49.142;2022-08-03T00:08:57;25.15;;;13.05;;
66893;SDS011;53801;55.786;49.142;2022-08-03T00:11:22;26.88;;;13.40;;
66893;SDS011;53801;55.786;49.142;2022-08-03T00:13:48;19.67;;;13.20;;
66893;SDS011;53801;55.786;49.142;2022-08-03T00:16:14;24.47;;;13.70;;
66893;SDS011;53801;55.786;49.142;2022-08-03T00:18:39;24.90;;;13.50;;
66893;SDS011;53801;55.786;49.142;2022-08-03T00:21:05;27.85;;;13.65;;
66893;SDS011;53801;55.786;49.142;2022-08-03T00:23:31;23.77;;;12.93;;
66893;SDS011;53801;55.786;49.142;2022-08-03T00:25:56;23.37;;;13.10;;
66893;SDS011;53801;55.786;49.142;2022-08-03T00:28:22;26.35;;;13.07;;
66893;SDS011;53801;55.786;49.142;2022-08-03T00:30:47;24.53;;;13.33;;
66893;SDS011;53801;55.786;49.142;2022-08-03T00:33:13;20.27;;;12.70;;
66893;SDS011;53801;55.786;49.142;2022-08-03T00:35:38;22.50;;;13.33;;
66893;SDS011;53801;55.786;49.142;2022-08-03T00:38:04;25.10;;;13.33;;
66893;SDS011;53801;55.786;49.142;2022-08-03T00:40:30;23.83;;;13.40;;
66893;SDS011;53801;55.786;49.142;2022-08-03T00:42:57;26.13;;;13.95;;
66893;SDS011;53801;55.786;49.142;2022-08-03T00:45:23;24.77;;;13.18;;
66893;SDS011;53801;55.786;49.142;2022-08-03T00:47:49;22.67;;;13.50;;
66893;SDS011;53801;55.786;49.142;2022-08-03T00:50:15;21.35;;;14.00;;
66893;SDS011;53801;55.786;49.142;2022-08-03T00:52:41;25.07;;;14.10;;
66893;SDS011;53801;55.786;49.142;2022-08-03T00:55:06;29.75;;;13.55;;
66893;SDS011;53801;55.786;49.142;2022-08-03T00:57:32;25.57;;;13.90;;
66893;SDS011;53801;55.786;49.142;2022-08-03T00:59:57;25.53;;;13.67;;
66893;SDS011;53801;55.786;49.142;2022-08-03T01:02:24;21.98;;;13.77;;
66893;SDS011;53801;55.786;49.142;2022-08-03T01:04:50;26.98;;;13.80;;
66893;SDS011;53801;55.786;49.142;2022-08-03T01:12:34;28.00;;;14.53;;
66893;SDS011;53801;55.786;49.142;2022-08-03T01:15:10;24.23;;;14.13;;
66893;SDS011;53801;55.786;49.142;2022-08-03T01:17:39;25.63;;;14.80;;
66893;SDS011;53801;55.786;49.142;2022-08-03T01:20:12;23.40;;;14.87;;
66893;SDS011;53801;55.786;49.142;2022-08-03T01:27:50;22.65;;;14.27;;
66893;SDS011;53801;55.786;49.142;2022-08-03T01:30:18;26.90;;;14.15;;
66893;SDS011;53801;55.786;49.142;2022-08-03T01:33:45;22.93;;;13.47;;
66893;SDS011;53801;55.786;49.142;2022-08-03T01:35:57;22.75;;;13.93;;
66893;SDS011;53801;55.786;49.142;2022-08-03T01:38:24;24.35;;;13.25;;
66893;SDS011;53801;55.786;49.142;2022-08-03T01:40:51;22.10;;;13.30;;
66893;SDS011;53801;55.786;49.142;2022-08-03T01:43:18;24.33;;;13.53;;
66893;SDS011;53801;55.786;49.142;2022-08-03T01:45:45;22.75;;;13.63;;
66893;SDS011;53801;55.786;49.142;2022-08-03T01:48:11;23.15;;;13.40;;
66893;SDS011;53801;55.786;49.142;2022-08-03T01:50:39;22.65;;;13.88;;
66893;SDS011;53801;55.786;49.142;2022-08-03T01:53:06;25.73;;;13.60;;
66893;SDS011;53801;55.786;49.142;2022-08-03T01:55:33;21.95;;;13.77;;
66893;SDS011;53801;55.786;49.142;2022-08-03T01:58:01;23.83;;;13.30;;
66893;SDS011;53801;55.786;49.142;2022-08-03T02:00:27;28.55;;;14.00;;
66893;SDS011;53801;55.786;49.142;2022-08-03T02:02:53;22.23;;;13.05;;
66893;SDS011;53801;55.786;49.142;2022-08-03T02:05:20;25.53;;;13.23;;
66893;SDS011;53801;55.786;49.142;2022-08-03T02:07:45;23.55;;;13.73;;
66893;SDS011;53801;55.786;49.142;2022-08-03T02:10:12;23.40;;;13.55;;
66893;SDS011;53801;55.786;49.142;2022-08-03T02:12:38;21.40;;;13.27;;
66893;SDS011;53801;55.786;49.142;2022-08-03T02:15:04;19.87;;;13.57;;
66893;SDS011;53801;55.786;49.142;2022-08-03T02:17:30;21.85;;;13.20;;
66893;SDS011;53801;55.786;49.142;2022-08-03T02:19:57;21.73;;;12.93;;
66893;SDS011;53801;55.786;49.142;2022-08-03T02:22:23;20.27;;;12.80;;
66893;SDS011;53801;55.786;49.142;2022-08-03T02:24:49;23.98;;;13.52;;
66893;SDS011;53801;55.786;49.142;2022-08-03T02:27:17;23.40;;;12.67;;
66893;SDS011;53801;55.786;49.142;2022-08-03T02:29:45;21.60;;;11.98;;
66893;SDS011;53801;55.786;49.142;2022-08-03T02:32:13;17.02;;;11.27;;
66893;SDS011;53801;55.786;49.142;2022-08-03T02:34:41;18.65;;;11.27;;
66893;SDS011;53801;55.786;49.142;2022-08-03T02:37:09;15.70;;;10.70;;
66893;SDS011;53801;55.786;49.142;2022-08-03T02:39:35;17.25;;;11.27;;
66893;SDS011;53801;55.786;49.142;2022-08-03T02:42:01;19.38;;;11.10;;
66893;SDS011;53801;55.786;49.142;2022-08-03T02:44:28;21.42;;;11.00;;
66893;SDS011;53801;55.786;49.142;2022-08-03T02:46:57;17.13;;;10.27;;
66893;SDS011;53801;55.786;49.142;2022-08-03T02:49:25;16.52;;;10.43;;
66893;SDS011;53801;55.786;49.142;2022-08-03T02:51:52;16.35;;;10.70;;
66893;SDS011;53801;55.786;49.142;2022-08-03T02:54:19;15.88;;;10.50;;
66893;SDS011;53801;55.786;49.142;2022-08-03T02:56:45;24.15;;;11.52;;
66893;SDS011;53801;55.786;49.142;2022-08-03T02:59:11;19.80;;;10.67;;
66893;SDS011;53801;55.786;49.142;2022-08-03T03:01:38;19.13;;;11.60;;
66893;SDS011;53801;55.786;49.142;2022-08-03T03:04:04;19.63;;;11.00;;
66893;SDS011;53801;55.786;49.142;2022-08-03T03:06:30;16.95;;;10.98;;
66893;SDS011;53801;55.786;49.142;2022-08-03T03:08:55;17.07;;;10.77;;
66893;SDS011;53801;55.786;49.142;2022-08-03T03:11:22;15.32;;;11.00;;
66893;SDS011;53801;55.786;49.142;2022-08-03T03:13:47;17.90;;;11.43;;
66893;SDS011;53801;55.786;49.142;2022-08-03T03:16:14;15.70;;;10.98;;
66893;SDS011;53801;55.786;49.142;2022-08-03T03:18:40;16.00;;;9.88;;
66893;SDS011;53801;55.786;49.142;2022-08-03T03:21:07;17.38;;;11.13;;
66893;SDS011;53801;55.786;49.142;2022-08-03T03:23:37;17.65;;;11.52;;
66893;SDS011;53801;55.786;49.142;2022-08-03T03:26:03;18.80;;;11.68;;
66893;SDS011;53801;55.786;49.142;2022-08-03T03:28:29;16.90;;;11.68;;
66893;SDS011;53801;55.786;49.142;2022-08-03T03:30:55;20.23;;;11.45;;
66893;SDS011;53801;55.786;49.142;2022-08-03T03:33:21;22.97;;;12.03;;
66893;SDS011;53801;55.786;49.142;2022-08-03T03:35:46;17.65;;;11.73;;
66893;SDS011;53801;55.786;49.142;2022-08-03T03:38:12;17.20;;;11.83;;
66893;SDS011;53801;55.786;49.142;2022-08-03T03:40:38;17.42;;;11.70;;
66893;SDS011;53801;55.786;49.142;2022-08-03T03:43:07;25.40;;;11.70;;
66893;SDS011;53801;55.786;49.142;2022-08-03T03:45:33;18.52;;;11.48;;
66893;SDS011;53801;55.786;49.142;2022-08-03T03:47:59;17.98;;;10.80;;
66893;SDS011;53801;55.786;49.142;2022-08-03T03:50:25;17.08;;;10.82;;
66893;SDS011;53801;55.786;49.142;2022-08-03T03:52:51;14.93;;;10.77;;
66893;SDS011;53801;55.786;49.142;2022-08-03T03:55:17;24.75;;;11.73;;
66893;SDS011;53801;55.786;49.142;2022-08-03T03:57:42;18.95;;;11.30;;
66893;SDS011;53801;55.786;49.142;2022-08-03T04:00:08;16.50;;;11.13;;
66893;SDS011;53801;55.786;49.142;2022-08-03T04:02:33;15.13;;;11.40;;
66893;SDS011;53801;55.786;49.142;2022-08-03T04:04:59;21.23;;;11.77;;
66893;SDS011;53801;55.786;49.142;2022-08-03T04:08:17;25.52;;;11.93;;
66893;SDS011;53801;55.786;49.142;2022-08-03T04:11:08;16.38;;;11.73;;
66893;SDS011;53801;55.786;49.142;2022-08-03T04:13:36;16.30;;;11.10;;
66893;SDS011;53801;55.786;49.142;2022-08-03T04:16:02;19.13;;;11.95;;
66893;SDS011;53801;55.786;49.142;2022-08-03T04:18:28;18.48;;;11.80;;
66893;SDS011;53801;55.786;49.142;2022-08-03T04:20:55;15.80;;;12.13;;
66893;SDS011;53801;55.786;49.142;2022-08-03T04:23:23;16.27;;;11.50;;
66893;SDS011;53801;55.786;49.142;2022-08-03T04:25:50;18.38;;;12.05;;
66893;SDS011;53801;55.786;49.142;2022-08-03T04:28:18;16.35;;;12.02;;
66893;SDS011;53801;55.786;49.142;2022-08-03T04:30:44;19.50;;;12.65;;
66893;SDS011;53801;55.786;49.142;2022-08-03T04:33:12;16.60;;;12.48;;
66893;SDS011;53801;55.786;49.142;2022-08-03T04:35:38;18.67;;;12.43;;
66893;SDS011;53801;55.786;49.142;2022-08-03T04:38:05;15.27;;;12.95;;
66893;SDS011;53801;55.786;49.142;2022-08-03T04:40:35;18.17;;;13.35;;
66893;SDS011;53801;55.786;49.142;2022-08-03T04:43:01;18.52;;;12.45;;
66893;SDS011;53801;55.786;49.142;2022-08-03T04:45:27;17.23;;;12.77;;
66893;SDS011;53801;55.786;49.142;2022-08-03T04:47:54;16.60;;;13.13;;
66893;SDS011;53801;55.786;49.142;2022-08-03T04:50:20;16.92;;;12.52;;
66893;SDS011;53801;55.786;49.142;2022-08-03T04:52:55;17.60;;;12.85;;
66893;SDS011;53801;55.786;49.142;2022-08-03T04:55:27;18.35;;;12.57;;
66893;SDS011;53801;55.786;49.142;2022-08-03T04:57:53;17.73;;;13.32;;
66893;SDS011;53801;55.786;49.142;2022-08-03T05:00:19;20.85;;;14.02;;
66893;SDS011;53801;55.786;49.142;2022-08-03T05:02:44;16.17;;;13.00;;
66893;SDS011;53801;55.786;49.142;2022-08-03T05:05:10;18.67;;;14.30;;
66893;SDS011;53801;55.786;49.142;2022-08-03T05:07:36;18.27;;;13.68;;
66893;SDS011;53801;55.786;49.142;2022-08-03T05:10:03;20.63;;;14.10;;
66893;SDS011;53801;55.786;49.142;2022-08-03T05:12:29;16.95;;;15.07;;
66893;SDS011;53801;55.786;49.142;2022-08-03T05:14:54;16.40;;;13.93;;
66893;SDS011;53801;55.786;49.142;2022-08-03T05:17:20;16.37;;;14.40;;
66893;SDS011;53801;55.786;49.142;2022-08-03T05:19:45;20.33;;;13.47;;
66893;SDS011;53801;55.786;49.142;2022-08-03T05:22:11;18.67;;;14.60;;
66893;SDS011;53801;55.786;49.142;2022-08-03T05:24:36;17.20;;;13.23;;
66893;SDS011;53801;55.786;49.142;2022-08-03T05:27:01;18.87;;;14.13;;
66893;SDS011;53801;55.786;49.142;2022-08-03T05:29:27;22.87;;;14.73;;
66893;SDS011;53801;55.786;49.142;2022-08-03T05:31:52;20.03;;;14.40;;
66893;SDS011;53801;55.786;49.142;2022-08-03T05:34:18;20.87;;;14.63;;
66893;SDS011;53801;55.786;49.142;2022-08-03T05:36:43;19.27;;;13.75;;
66893;SDS011;53801;55.786;49.142;2022-08-03T05:39:08;17.43;;;13.77;;
66893;SDS011;53801;55.786;49.142;2022-08-03T05:41:34;14.70;;;13.20;;
66893;SDS011;53801;55.786;49.142;2022-08-03T05:43:59;19.17;;;14.60;;
66893;SDS011;53801;55.786;49.142;2022-08-03T05:46:25;20.35;;;14.70;;
66893;SDS011;53801;55.786;49.142;2022-08-03T05:48:50;16.57;;;13.77;;
66893;SDS011;53801;55.786;49.142;2022-08-03T05:51:16;16.80;;;15.00;;
66893;SDS011;53801;55.786;49.142;2022-08-03T05:53:42;21.88;;;15.68;;
66893;SDS011;53801;55.786;49.142;2022-08-03T05:56:07;18.27;;;14.97;;
66893;SDS011;53801;55.786;49.142;2022-08-03T05:58:33;17.00;;;15.25;;
66893;SDS011;53801;55.786;49.142;2022-08-03T06:00:59;18.27;;;13.13;;
66893;SDS011;53801;55.786;49.142;2022-08-03T06:03:32;17.57;;;15.70;;
66893;SDS011;53801;55.786;49.142;2022-08-03T06:05:57;21.90;;;14.70;;
66893;SDS011;53801;55.786;49.142;2022-08-03T06:08:23;13.40;;;11.80;;
66893;SDS011;53801;55.786;49.142;2022-08-03T06:10:57;14.93;;;12.60;;
66893;SDS011;53801;55.786;49.142;2022-08-03T06:13:22;25.63;;;15.43;;
66893;SDS011;53801;55.786;49.142;2022-08-03T06:15:48;18.33;;;13.30;;
66893;SDS011;53801;55.786;49.142;2022-08-03T06:18:13;17.53;;;11.23;;
66893;SDS011;53801;55.786;49.142;2022-08-03T06:20:39;21.33;;;11.50;;
66893;SDS011;53801;55.786;49.142;2022-08-03T06:23:04;17.75;;;10.73;;
66893;SDS011;53801;55.786;49.142;2022-08-03T06:25:30;31.20;;;11.27;;
66893;SDS011;53801;55.786;49.142;2022-08-03T06:27:55;15.17;;;12.00;;
66893;SDS011;53801;55.786;49.142;2022-08-03T06:30:21;13.50;;;11.95;;
66893;SDS011;53801;55.786;49.142;2022-08-03T06:32:46;14.02;;;9.82;;
66893;SDS011;53801;55.786;49.142;2022-08-03T06:35:12;17.70;;;10.60;;
66893;SDS011;53801;55.786;49.142;2022-08-03T06:37:41;17.93;;;12.30;;
66893;SDS011;53801;55.786;49.142;2022-08-03T06:40:07;15.18;;;10.20;;
66893;SDS011;53801;55.786;49.142;2022-08-03T06:42:33;17.92;;;10.40;;
66893;SDS011;53801;55.786;49.142;2022-08-03T06:44:58;20.87;;;9.90;;
66893;SDS011;53801;55.786;49.142;2022-08-03T06:47:24;24.57;;;10.20;;
66893;SDS011;53801;55.786;49.142;2022-08-03T06:49:49;13.07;;;10.47;;
66893;SDS011;53801;55.786;49.142;2022-08-03T06:52:14;15.50;;;9.95;;
66893;SDS011;53801;55.786;49.142;2022-08-03T06:54:42;15.57;;;9.43;;
66893;SDS011;53801;55.786;49.142;2022-08-03T06:57:08;12.48;;;9.68;;
66893;SDS011;53801;55.786;49.142;2022-08-03T06:59:35;15.00;;;8.63;;
66893;SDS011;53801;55.786;49.142;2022-08-03T07:02:01;9.50;;;7.88;;
66893;SDS011;53801;55.786;49.142;2022-08-03T07:04:27;13.50;;;8.30;;
66893;SDS011;53801;55.786;49.142;2022-08-03T07:06:52;14.50;;;7.88;;
66893;SDS011;53801;55.786;49.142;2022-08-03T07:09:19;12.57;;;7.20;;
66893;SDS011;53801;55.786;49.142;2022-08-03T07:11:44;9.40;;;7.32;;
66893;SDS011;53801;55.786;49.142;2022-08-03T07:14:10;13.40;;;7.03;;
66893;SDS011;53801;55.786;49.142;2022-08-03T07:16:36;7.35;;;5.70;;
66893;SDS011;53801;55.786;49.142;2022-08-03T07:19:01;7.10;;;5.57;;
66893;SDS011;53801;55.786;49.142;2022-08-03T07:21:27;7.87;;;5.47;;
66893;SDS011;53801;55.786;49.142;2022-08-03T07:23:52;9.33;;;6.10;;
66893;SDS011;53801;55.786;49.142;2022-08-03T07:26:18;7.05;;;5.10;;
66893;SDS011;53801;55.786;49.142;2022-08-03T07:28:43;8.33;;;5.50;;
66893;SDS011;53801;55.786;49.142;2022-08-03T07:31:09;7.85;;;5.50;;
66893;SDS011;53801;55.786;49.142;2022-08-03T07:33:34;12.77;;;7.30;;
66893;SDS011;53801;55.786;49.142;2022-08-03T07:36:00;10.43;;;5.93;;
66893;SDS011;53801;55.786;49.142;2022-08-03T07:38:25;9.45;;;5.68;;
66893;SDS011;53801;55.786;49.142;2022-08-03T07:40:52;8.00;;;5.57;;
66893;SDS011;53801;55.786;49.142;2022-08-03T07:43:19;8.68;;;5.68;;
66893;SDS011;53801;55.786;49.142;2022-08-03T07:45:45;9.03;;;5.17;;
66893;SDS011;53801;55.786;49.142;2022-08-03T07:48:10;9.60;;;6.00;;
66893;SDS011;53801;55.786;49.142;2022-08-03T07:50:36;7.73;;;5.40;;
66893;SDS011;53801;55.786;49.142;2022-08-03T07:53:01;7.93;;;5.80;;
66893;SDS011;53801;55.786;49.142;2022-08-03T07:55:27;7.10;;;5.90;;
66893;SDS011;53801;55.786;49.142;2022-08-03T08:00:25;6.95;;;5.60;;
66893;SDS011;53801;55.786;49.142;2022-08-03T08:02:51;8.73;;;5.60;;
66893;SDS011;53801;55.786;49.142;2022-08-03T08:05:16;10.40;;;7.90;;
66893;SDS011;53801;55.786;49.142;2022-08-03T08:07:42;9.45;;;8.00;;
66893;SDS011;53801;55.786;49.142;2022-08-03T08:10:08;6.90;;;5.70;;
66893;SDS011;53801;55.786;49.142;2022-08-03T08:12:37;6.25;;;5.43;;
66893;SDS011;53801;55.786;49.142;2022-08-03T08:15:03;9.07;;;8.25;;
66893;SDS011;53801;55.786;49.142;2022-08-03T08:17:29;9.23;;;8.35;;
66893;SDS011;53801;55.786;49.142;2022-08-03T08:19:54;9.67;;;8.70;;
66893;SDS011;53801;55.786;49.142;2022-08-03T08:22:20;10.73;;;8.48;;
66893;SDS011;53801;55.786;49.142;2022-08-03T08:24:45;10.30;;;9.17;;
66893;SDS011;53801;55.786;49.142;2022-08-03T08:27:13;7.63;;;6.28;;
66893;SDS011;53801;55.786;49.142;2022-08-03T08:29:39;12.93;;;5.90;;
66893;SDS011;53801;55.786;49.142;2022-08-03T08:32:04;9.48;;;8.35;;
66893;SDS011;53801;55.786;49.142;2022-08-03T08:34:29;14.13;;;8.70;;
66893;SDS011;53801;55.786;49.142;2022-08-03T08:36:55;9.10;;;8.40;;
66893;SDS011;53801;55.786;49.142;2022-08-03T08:39:20;9.63;;;8.33;;
66893;SDS011;53801;55.786;49.142;2022-08-03T08:41:46;9.20;;;8.47;;
66893;SDS011;53801;55.786;49.142;2022-08-03T08:44:14;9.93;;;9.13;;
66893;SDS011;53801;55.786;49.142;2022-08-03T08:46:40;9.70;;;8.80;;
66893;SDS011;53801;55.786;49.142;2022-08-03T08:49:06;9.65;;;8.85;;
66893;SDS011;53801;55.786;49.142;2022-08-03T08:51:33;10.40;;;9.50;;
66893;SDS011;53801;55.786;49.142;2022-08-03T08:54:03;10.18;;;9.13;;
66893;SDS011;53801;55.786;49.142;2022-08-03T08:56:31;11.15;;;10.25;;
66893;SDS011;53801;55.786;49.142;2022-08-03T08:58:58;10.63;;;9.60;;
66893;SDS011;53801;55.786;49.142;2022-08-03T09:01:27;11.60;;;10.50;;
66893;SDS011;53801;55.786;49.142;2022-08-03T09:03:53;10.50;;;9.70;;
66893;SDS011;53801;55.786;49.142;2022-08-03T09:06:22;9.93;;;9.13;;
66893;SDS011;53801;55.786;49.142;2022-08-03T09:08:47;10.85;;;9.95;;
66893;SDS011;53801;55.786;49.142;2022-08-03T09:11:22;11.60;;;10.70;;
66893;SDS011;53801;55.786;49.142;2022-08-03T09:13:48;10.25;;;9.35;;
66893;SDS011;53801;55.786;49.142;2022-08-03T09:16:23;10.60;;;9.53;;
66893;SDS011;53801;55.786;49.142;2022-08-03T09:18:50;11.20;;;10.40;;
66893;SDS011;53801;55.786;49.142;2022-08-03T09:21:17;10.07;;;9.20;;
66893;SDS011;53801;55.786;49.142;2022-08-03T09:23:46;10.52;;;9.50;;
66893;SDS011;53801;55.786;49.142;2022-08-03T09:26:11;10.57;;;9.68;;
66893;SDS011;53801;55.786;49.142;2022-08-03T09:28:37;10.10;;;9.10;;
66893;SDS011;53801;55.786;49.142;2022-08-03T09:31:03;10.45;;;9.75;;
66893;SDS011;53801;55.786;49.142;2022-08-03T09:33:28;10.57;;;9.73;;
66893;SDS011;53801;55.786;49.142;2022-08-03T09:35:54;10.50;;;9.75;;
66893;SDS011;53801;55.786;49.142;2022-08-03T09:38:42;11.70;;;10.80;;
66893;SDS011;53801;55.786;49.142;2022-08-03T09:41:16;10.88;;;9.93;;
66893;SDS011;53801;55.786;49.142;2022-08-03T09:43:51;11.80;;;10.70;;
66893;SDS011;53801;55.786;49.142;2022-08-03T09:46:24;12.32;;;10.20;;
66893;SDS011;53801;55.786;49.142;2022-08-03T09:48:49;11.37;;;10.43;;
66893;SDS011;53801;55.786;49.142;2022-08-03T09:51:15;11.07;;;9.93;;
66893;SDS011;53801;55.786;49.142;2022-08-03T09:53:52;11.80;;;10.85;;
66893;SDS011;53801;55.786;49.142;2022-08-03T09:56:21;11.55;;;10.65;;
66893;SDS011;53801;55.786;49.142;2022-08-03T09:59:04;12.07;;;11.20;;
66893;SDS011;53801;55.786;49.142;2022-08-03T10:01:33;7.00;;;6.40;;
66893;SDS011;53801;55.786;49.142;2022-08-03T10:03:59;7.30;;;6.60;;
66893;SDS011;53801;55.786;49.142;2022-08-03T10:06:25;6.07;;;5.47;;
66893;SDS011;53801;55.786;49.142;2022-08-03T10:09:07;8.23;;;5.50;;
66893;SDS011;53801;55.786;49.142;2022-08-03T10:11:35;8.45;;;5.40;;
66893;SDS011;53801;55.786;49.142;2022-08-03T10:14:10;8.50;;;5.03;;
66893;SDS011;53801;55.786;49.142;2022-08-03T10:16:43;7.95;;;7.25;;
66893;SDS011;53801;55.786;49.142;2022-08-03T10:19:09;7.20;;;6.60;;
66893;SDS011;53801;55.786;49.142;2022-08-03T10:21:36;7.67;;;6.97;;
66893;SDS011;53801;55.786;49.142;2022-08-03T10:24:05;7.55;;;6.88;;
66893;SDS011;53801;55.786;49.142;2022-08-03T10:26:37;7.80;;;7.20;;
66893;SDS011;53801;55.786;49.142;2022-08-03T10:29:04;7.77;;;6.27;;
66893;SDS011;53801;55.786;49.142;2022-08-03T10:35:04;5.40;;;4.90;;
66893;SDS011;53801;55.786;49.142;2022-08-03T10:37:42;7.10;;;4.40;;
66893;SDS011;53801;55.786;49.142;2022-08-03T10:40:13;9.45;;;4.80;;
66893;SDS011;53801;55.786;49.142;2022-08-03T10:42:44;8.97;;;4.17;;
66893;SDS011;53801;55.786;49.142;2022-08-03T10:45:18;10.27;;;4.53;;
66893;SDS011;53801;55.786;49.142;2022-08-03T10:47:44;13.38;;;4.43;;
66893;SDS011;53801;55.786;49.142;2022-08-03T10:50:18;6.55;;;4.22;;
66893;SDS011;53801;55.786;49.142;2022-08-03T10:53:32;6.10;;;3.80;;
66893;SDS011;53801;55.786;49.142;2022-08-03T10:59:12;5.60;;;3.97;;
66893;SDS011;53801;55.786;49.142;2022-08-03T11:01:51;6.20;;;4.15;;
66893;SDS011;53801;55.786;49.142;2022-08-03T11:04:17;4.10;;;3.70;;
66893;SDS011;53801;55.786;49.142;2022-08-03T11:06:43;4.43;;;3.58;;
66893;SDS011;53801;55.786;49.142;2022-08-03T11:11:35;7.27;;;4.20;;
66893;SDS011;53801;55.786;49.142;2022-08-03T11:16:36;4.97;;;3.67;;
66893;SDS011;53801;55.786;49.142;2022-08-03T11:19:04;5.35;;;3.63;;
66893;SDS011;53801;55.786;49.142;2022-08-03T11:35:10;15.60;;;4.93;;
66893;SDS011;53801;55.786;49.142;2022-08-03T11:45:34;8.13;;;3.40;;
66893;SDS011;53801;55.786;49.142;2022-08-03T11:48:15;4.57;;;3.00;;
66893;SDS011;53801;55.786;49.142;2022-08-03T11:50:41;6.60;;;3.10;;
66893;SDS011;53801;55.786;49.142;2022-08-03T11:53:12;4.70;;;3.05;;
66893;SDS011;53801;55.786;49.142;2022-08-03T11:55:38;5.15;;;2.85;;
66893;SDS011;53801;55.786;49.142;2022-08-03T11:58:06;3.22;;;2.92;;
66893;SDS011;53801;55.786;49.142;2022-08-03T12:00:31;5.20;;;2.70;;
66893;SDS011;53801;55.786;49.142;2022-08-03T12:03:06;6.07;;;2.95;;
66893;SDS011;53801;55.786;49.142;2022-08-03T12:08:32;4.40;;;3.20;;
66893;SDS011;53801;55.786;49.142;2022-08-03T12:10:58;4.70;;;3.30;;
66893;SDS011;53801;55.786;49.142;2022-08-03T12:13:27;4.45;;;3.05;;
66893;SDS011;53801;55.786;49.142;2022-08-03T12:16:04;6.30;;;3.30;;
66893;SDS011;53801;55.786;49.142;2022-08-03T12:18:30;3.95;;;3.13;;
66893;SDS011;53801;55.786;49.142;2022-08-03T12:21:06;5.93;;;3.13;;
66893;SDS011;53801;55.786;49.142;2022-08-03T12:23:31;4.40;;;3.10;;
66893;SDS011;53801;55.786;49.142;2022-08-03T12:26:15;5.07;;;3.10;;
66893;SDS011;53801;55.786;49.142;2022-08-03T12:28:47;6.75;;;3.08;;
66893;SDS011;53801;55.786;49.142;2022-08-03T12:31:13;3.13;;;2.70;;
66893;SDS011;53801;55.786;49.142;2022-08-03T12:33:59;6.43;;;3.10;;
66893;SDS011;53801;55.786;49.142;2022-08-03T12:36:27;9.35;;;3.08;;
66893;SDS011;53801;55.786;49.142;2022-08-03T12:38:53;3.77;;;2.90;;
66893;SDS011;53801;55.786;49.142;2022-08-03T12:41:25;6.70;;;3.17;;
66893;SDS011;53801;55.786;49.142;2022-08-03T12:43:53;9.13;;;3.38;;
66893;SDS011;53801;55.786;49.142;2022-08-03T12:46:19;4.75;;;2.70;;
66893;SDS011;53801;55.786;49.142;2022-08-03T12:48:57;3.53;;;2.60;;
66893;SDS011;53801;55.786;49.142;2022-08-03T12:54:34;6.13;;;3.20;;
66893;SDS011;53801;55.786;49.142;2022-08-03T13:00:37;7.75;;;2.90;;
66893;SDS011;53801;55.786;49.142;2022-08-03T13:03:03;4.83;;;3.10;;
66893;SDS011;53801;55.786;49.142;2022-08-03T13:05:30;9.15;;;2.80;;
66893;SDS011;53801;55.786;49.142;2022-08-03T13:07:56;2.63;;;2.30;;
66893;SDS011;53801;55.786;49.142;2022-08-03T13:10:28;4.23;;;2.83;;
66893;SDS011;53801;55.786;49.142;2022-08-03T13:12:55;3.38;;;2.42;;
66893;SDS011;53801;55.786;49.142;2022-08-03T13:16:04;3.78;;;2.40;;
66893;SDS011;53801;55.786;49.142;2022-08-03T13:18:30;4.70;;;2.50;;
66893;SDS011;53801;55.786;49.142;2022-08-03T13:20:58;4.50;;;2.58;;
66893;SDS011;53801;55.786;49.142;2022-08-03T13:23:24;4.22;;;2.30;;
66893;SDS011;53801;55.786;49.142;2022-08-03T13:25:49;7.03;;;3.60;;
66893;SDS011;53801;55.786;49.142;2022-08-03T13:28:18;6.95;;;2.35;;
66893;SDS011;53801;55.786;49.142;2022-08-03T13:30:46;5.10;;;2.70;;
66893;SDS011;53801;55.786;49.142;2022-08-03T13:33:15;5.03;;;2.55;;
66893;SDS011;53801;55.786;49.142;2022-08-03T13:35:49;4.50;;;2.65;;
66893;SDS011;53801;55.786;49.142;2022-08-03T13:40:56;7.20;;;2.40;;
66893;SDS011;53801;55.786;49.142;2022-08-03T13:43:22;4.57;;;2.80;;
66893;SDS011;53801;55.786;49.142;2022-08-03T13:45:48;3.70;;;2.28;;
66893;SDS011;53801;55.786;49.142;2022-08-03T13:48:29;2.85;;;2.40;;
66893;SDS011;53801;55.786;49.142;2022-08-03T13:50:57;4.23;;;2.43;;
66893;SDS011;53801;55.786;49.142;2022-08-03T13:56:12;5.32;;;3.50;;
66893;SDS011;53801;55.786;49.142;2022-08-03T13:58:40;7.38;;;2.78;;
66893;SDS011;53801;55.786;49.142;2022-08-03T14:01:05;5.50;;;2.78;;
66893;SDS011;53801;55.786;49.142;2022-08-03T14:03:31;7.15;;;2.70;;
66893;SDS011;53801;55.786;49.142;2022-08-03T14:05:56;6.33;;;2.73;;
66893;SDS011;53801;55.786;49.142;2022-08-03T14:08:22;7.73;;;2.70;;
66893;SDS011;53801;55.786;49.142;2022-08-03T14:10:47;7.40;;;3.30;;
66893;SDS011;53801;55.786;49.142;2022-08-03T14:13:13;6.73;;;2.57;;
66893;SDS011;53801;55.786;49.142;2022-08-03T14:15:40;5.80;;;2.25;;
66893;SDS011;53801;55.786;49.142;2022-08-03T14:18:08;4.97;;;2.60;;
66893;SDS011;53801;55.786;49.142;2022-08-03T14:20:34;3.50;;;2.35;;
66893;SDS011;53801;55.786;49.142;2022-08-03T14:22:59;3.65;;;2.20;;
66893;SDS011;53801;55.786;49.142;2022-08-03T14:25:24;3.23;;;2.27;;
66893;SDS011;53801;55.786;49.142;2022-08-03T14:27:50;3.70;;;2.10;;
66893;SDS011;53801;55.786;49.142;2022-08-03T14:30:18;4.93;;;2.60;;
66893;SDS011;53801;55.786;49.142;2022-08-03T14:32:44;5.28;;;2.00;;
66893;SDS011;53801;55.786;49.142;2022-08-03T14:35:10;8.45;;;2.40;;
66893;SDS011;53801;55.786;49.142;2022-08-03T14:37:35;4.60;;;2.30;;
66893;SDS011;53801;55.786;49.142;2022-08-03T14:40:01;4.93;;;2.92;;
66893;SDS011;53801;55.786;49.142;2022-08-03T14:42:28;4.70;;;2.28;;
66893;SDS011;53801;55.786;49.142;2022-08-03T14:44:54;3.30;;;2.05;;
66893;SDS011;53801;55.786;49.142;2022-08-03T14:47:19;3.83;;;2.40;;
66893;SDS011;53801;55.786;49.142;2022-08-03T14:49:44;3.83;;;2.50;;
66893;SDS011;53801;55.786;49.142;2022-08-03T14:52:10;6.10;;;2.30;;
66893;SDS011;53801;55.786;49.142;2022-08-03T14:54:35;3.22;;;2.65;;
66893;SDS011;53801;55.786;49.142;2022-08-03T14:57:04;4.67;;;2.20;;
66893;SDS011;53801;55.786;49.142;2022-08-03T14:59:29;6.30;;;2.20;;
66893;SDS011;53801;55.786;49.142;2022-08-03T15:01:55;5.10;;;2.20;;
66893;SDS011;53801;55.786;49.142;2022-08-03T15:04:20;6.30;;;2.20;;
66893;SDS011;53801;55.786;49.142;2022-08-03T15:06:46;5.78;;;1.90;;
66893;SDS011;53801;55.786;49.142;2022-08-03T15:09:11;3.42;;;2.20;;
66893;SDS011;53801;55.786;49.142;2022-08-03T15:11:37;3.33;;;2.10;;
66893;SDS011;53801;55.786;49.142;2022-08-03T15:14:02;4.63;;;2.00;;
66893;SDS011;53801;55.786;49.142;2022-08-03T15:16:28;5.90;;;2.70;;
66893;SDS011;53801;55.786;49.142;2022-08-03T15:18:53;6.53;;;2.40;;
66893;SDS011;53801;55.786;49.142;2022-08-03T15:21:19;6.10;;;2.43;;
66893;SDS011;53801;55.786;49.142;2022-08-03T15:23:44;6.17;;;3.33;;
66893;SDS011;53801;55.786;49.142;2022-08-03T15:26:12;6.60;;;2.93;;